createdAt,value
2018-12-11T00:00:04.070Z,4.00
2018-12-11T00:01:04.043Z,4.00
2018-12-11T00:02:04.039Z,4.00
2018-12-11T00:03:04.071Z,4.00
2018-12-11T00:04:04.024Z,4.00
2018-12-11T00:05:05.476Z,4.00
2018-12-11T00:06:08.024Z,4.00
2018-12-11T00:07:03.999Z,4.00
2018-12-11T00:08:04.767Z,4.00
2018-12-11T00:09:11.699Z,4.00
2018-12-11T00:10:07.887Z,4.00
2018-12-11T00:11:05.402Z,4.00
2018-12-11T00:12:03.933Z,4.00
2018-12-11T00:13:03.933Z,4.00
2018-12-11T00:14:06.620Z,4.00
2018-12-11T00:15:05.343Z,4.00
2018-12-11T00:16:04.011Z,4.00
2018-12-11T00:17:03.891Z,4.00
2018-12-11T00:18:03.914Z,4.00
2018-12-11T00:19:03.896Z,4.00
2018-12-11T00:20:05.923Z,4.00
2018-12-11T00:21:03.911Z,4.00
2018-12-11T00:22:03.933Z,4.00
2018-12-11T00:23:03.941Z,4.00
2018-12-11T00:24:04.673Z,4.00
2018-12-11T00:25:04.008Z,4.00
2018-12-11T00:26:05.599Z,4.00
2018-12-11T00:27:03.845Z,4.00
2018-12-11T00:28:03.869Z,4.00
2018-12-11T00:29:03.831Z,4.00
2018-12-11T00:30:04.806Z,4.00
2018-12-11T00:31:07.891Z,4.00
2018-12-11T00:32:03.776Z,4.00
2018-12-11T00:33:05.061Z,4.00
2018-12-11T00:34:08.525Z,4.00
2018-12-11T00:35:04.789Z,4.00
2018-12-11T00:36:10.530Z,4.00
2018-12-11T00:37:07.787Z,4.00
2018-12-11T00:38:04.993Z,4.00
2018-12-11T00:39:03.734Z,4.00
2018-12-11T00:40:03.885Z,4.00
2018-12-11T00:41:03.707Z,4.00
2018-12-11T00:42:03.694Z,4.00
2018-12-11T00:43:05.753Z,4.00
2018-12-11T00:44:05.699Z,4.00
2018-12-11T00:45:10.219Z,4.00
2018-12-11T00:46:03.674Z,4.00
2018-12-11T00:47:03.708Z,4.00
2018-12-11T00:48:05.008Z,4.00
2018-12-11T00:49:05.286Z,4.00
2018-12-11T00:50:05.662Z,4.00
2018-12-11T00:51:04.868Z,4.00
2018-12-11T00:52:03.723Z,4.00
2018-12-11T00:53:04.882Z,4.00
2018-12-11T00:54:03.732Z,4.00
2018-12-11T00:55:03.588Z,4.00
2018-12-11T00:56:05.417Z,4.00
2018-12-11T00:57:03.703Z,4.00
2018-12-11T00:58:03.577Z,4.00
2018-12-11T00:59:03.560Z,4.00
2018-12-11T01:00:05.074Z,4.00
2018-12-11T01:01:03.560Z,4.00
2018-12-11T01:02:03.597Z,4.00
2018-12-11T01:03:20.245Z,4.00
2018-12-11T01:04:03.527Z,4.00
2018-12-11T01:05:03.574Z,4.00
2018-12-11T01:06:04.455Z,4.00
2018-12-11T01:07:05.513Z,4.00
2018-12-11T01:08:08.538Z,4.00
2018-12-11T01:09:07.038Z,4.00
2018-12-11T01:10:03.470Z,4.00
2018-12-11T01:11:05.449Z,4.00
2018-12-11T01:12:03.469Z,4.00
2018-12-11T01:13:09.399Z,4.00
2018-12-11T01:14:04.565Z,4.00
2018-12-11T01:15:04.456Z,4.00
2018-12-11T01:16:05.485Z,4.00
2018-12-11T01:17:04.422Z,4.00
2018-12-11T01:18:04.200Z,4.00
2018-12-11T01:19:04.422Z,4.00
2018-12-11T01:20:05.441Z,4.00
2018-12-11T01:21:03.421Z,4.00
2018-12-11T01:22:03.397Z,4.00
2018-12-11T01:23:03.731Z,4.00
2018-12-11T01:24:03.367Z,4.00
2018-12-11T01:25:04.340Z,4.00
2018-12-11T01:26:05.735Z,4.00
2018-12-11T01:27:05.324Z,4.00
2018-12-11T01:28:22.372Z,4.00
2018-12-11T01:29:03.344Z,4.00
2018-12-11T01:30:05.395Z,4.00
2018-12-11T01:31:05.343Z,4.00
2018-12-11T01:32:04.393Z,4.00
2018-12-11T01:33:04.283Z,4.00
2018-12-11T01:34:03.354Z,4.00
2018-12-11T01:35:03.290Z,0.00
2018-12-11T01:36:03.288Z,0.00
2018-12-11T01:37:03.371Z,0.00
2018-12-11T01:38:05.963Z,0.00
2018-12-11T01:39:05.160Z,0.00
2018-12-11T01:40:03.321Z,0.00
2018-12-11T01:41:03.278Z,0.00
2018-12-11T01:42:03.272Z,0.00
2018-12-11T01:43:05.905Z,0.00
2018-12-11T01:44:03.223Z,0.00
2018-12-11T01:45:03.241Z,0.00
2018-12-11T01:46:04.254Z,0.00
2018-12-11T01:47:08.046Z,0.00
2018-12-11T01:48:04.751Z,0.00
2018-12-11T01:49:03.228Z,0.00
2018-12-11T01:50:03.138Z,0.00
2018-12-11T01:51:04.978Z,0.00
2018-12-11T01:52:03.149Z,0.00
2018-12-11T01:53:04.123Z,0.00
2018-12-11T01:54:03.139Z,0.00
2018-12-11T01:55:07.164Z,0.00
2018-12-11T01:56:04.442Z,0.00
2018-12-11T01:57:05.892Z,0.00
2018-12-11T01:58:03.246Z,0.00
2018-12-11T01:59:03.096Z,0.00
2018-12-11T02:00:06.730Z,0.00
2018-12-11T02:01:03.075Z,0.00
2018-12-11T02:02:04.090Z,0.00
2018-12-11T02:03:04.470Z,0.00
2018-12-11T02:04:04.029Z,0.00
2018-12-11T02:05:05.623Z,0.00
2018-12-11T02:06:05.128Z,0.00
2018-12-11T02:07:03.041Z,0.00
2018-12-11T02:08:06.188Z,0.00
2018-12-11T02:09:03.970Z,0.00
2018-12-11T02:10:03.009Z,0.00
2018-12-11T02:11:03.024Z,0.00
2018-12-11T02:12:04.048Z,0.00
2018-12-11T02:13:04.884Z,0.00
2018-12-11T02:14:03.225Z,0.00
2018-12-11T02:15:03.022Z,0.00
2018-12-11T02:16:03.033Z,0.00
2018-12-11T02:17:02.930Z,0.00
2018-12-11T02:18:07.020Z,0.00
2018-12-11T02:19:06.659Z,0.00
2018-12-11T02:20:13.068Z,0.00
2018-12-11T02:21:02.911Z,0.00
2018-12-11T02:22:04.957Z,0.00
2018-12-11T02:23:02.907Z,0.00
2018-12-11T02:24:11.070Z,0.00
2018-12-11T02:26:05.576Z,0.00
2018-12-11T02:27:03.917Z,0.00
2018-12-11T02:28:02.865Z,0.00
2018-12-11T02:29:04.429Z,0.00
2018-12-11T02:30:04.439Z,0.00
2018-12-11T02:31:03.826Z,0.00
2018-12-11T02:32:02.822Z,0.00
2018-12-11T02:33:05.458Z,0.00
2018-12-11T02:34:06.934Z,0.00
2018-12-11T02:35:05.454Z,0.00
2018-12-11T02:36:07.126Z,0.00
2018-12-11T02:37:02.928Z,0.00
2018-12-11T02:38:04.222Z,0.00
2018-12-11T02:39:03.744Z,0.00
2018-12-11T02:40:03.945Z,0.00
2018-12-11T02:41:02.747Z,0.00
2018-12-11T02:42:04.019Z,0.00
2018-12-11T02:43:06.309Z,0.00
2018-12-11T02:44:04.470Z,0.00
2018-12-11T02:45:05.511Z,0.00
2018-12-11T02:46:04.944Z,0.00
2018-12-11T02:47:02.932Z,0.00
2018-12-11T02:48:03.506Z,0.00
2018-12-11T02:49:03.954Z,0.00
2018-12-11T02:50:05.983Z,0.00
2018-12-11T02:52:02.719Z,0.00
2018-12-11T02:53:24.010Z,0.00
2018-12-11T02:54:04.479Z,0.00
2018-12-11T02:55:03.934Z,0.00
2018-12-11T02:56:05.334Z,0.00
2018-12-11T02:57:03.668Z,0.00
2018-12-11T02:58:04.974Z,0.00
2018-12-11T02:59:04.556Z,0.00
2018-12-11T03:00:04.996Z,0.00
2018-12-11T03:01:04.679Z,0.00
2018-12-11T03:02:03.552Z,0.00
2018-12-11T03:03:04.591Z,0.00
2018-12-11T03:04:04.972Z,0.00
2018-12-11T03:05:06.965Z,0.00
2018-12-11T03:06:04.967Z,0.00
2018-12-11T03:07:02.638Z,0.00
2018-12-11T03:08:04.984Z,0.00
2018-12-11T03:09:03.544Z,0.00
2018-12-11T03:10:02.514Z,0.00
2018-12-11T03:11:02.521Z,0.00
2018-12-11T03:12:02.746Z,0.00
2018-12-11T03:13:05.043Z,0.00
2018-12-11T03:14:04.968Z,0.00
2018-12-11T03:15:03.909Z,0.00
2018-12-11T03:16:03.465Z,0.00
2018-12-11T03:17:02.557Z,0.00
2018-12-11T03:18:06.462Z,0.00
2018-12-11T03:19:06.450Z,0.00
2018-12-11T03:20:04.971Z,0.00
2018-12-11T03:22:02.640Z,0.00
2018-12-11T03:23:04.939Z,0.00
2018-12-11T03:24:10.756Z,0.00
2018-12-11T03:25:09.564Z,0.00
2018-12-11T03:26:06.488Z,0.00
2018-12-11T03:27:02.635Z,0.00
2018-12-11T03:28:05.473Z,0.00
2018-12-11T03:29:04.902Z,0.00
2018-12-11T03:30:03.279Z,0.00
2018-12-11T03:31:02.339Z,0.00
2018-12-11T03:32:04.354Z,0.00
2018-12-11T03:33:05.037Z,0.00
2018-12-11T03:34:05.227Z,0.00
2018-12-11T03:35:04.514Z,0.00
2018-12-11T03:36:03.878Z,0.00
2018-12-11T03:37:02.336Z,0.00
2018-12-11T03:38:02.285Z,0.00
2018-12-11T03:39:04.303Z,0.00
2018-12-11T03:40:04.480Z,0.00
2018-12-11T03:41:04.500Z,0.00
2018-12-11T03:42:02.320Z,0.00
2018-12-11T03:43:04.491Z,0.00
2018-12-11T03:44:04.439Z,0.00
2018-12-11T03:45:04.413Z,0.00
2018-12-11T03:46:04.667Z,0.00
2018-12-11T03:47:02.198Z,0.00
2018-12-11T03:48:04.453Z,0.00
2018-12-11T03:49:04.396Z,0.00
2018-12-11T03:50:04.371Z,0.00
2018-12-11T03:51:02.250Z,0.00
2018-12-11T03:52:02.427Z,0.00
2018-12-11T03:53:04.566Z,0.00
2018-12-11T03:54:04.406Z,0.00
2018-12-11T03:55:04.451Z,0.00
2018-12-11T03:56:02.130Z,0.00
2018-12-11T03:57:02.229Z,0.00
2018-12-11T03:58:02.147Z,0.00
2018-12-11T03:59:03.743Z,0.00
2018-12-11T04:00:04.397Z,0.00
2018-12-11T04:01:04.226Z,0.00
2018-12-11T04:02:02.095Z,0.00
2018-12-11T04:03:03.063Z,0.00
2018-12-11T04:04:03.998Z,0.00
2018-12-11T04:05:04.656Z,0.00
2018-12-11T04:06:04.442Z,0.00
2018-12-11T04:07:02.342Z,0.00
2018-12-11T04:08:05.379Z,0.00
2018-12-11T04:09:04.928Z,0.00
2018-12-11T04:10:04.018Z,0.00
2018-12-11T04:11:05.447Z,0.00
2018-12-11T04:12:02.027Z,0.00
2018-12-11T04:13:06.461Z,0.00
2018-12-11T04:14:06.476Z,0.00
2018-12-11T04:15:04.394Z,0.00
2018-12-11T04:16:04.060Z,0.00
2018-12-11T04:17:02.078Z,0.00
2018-12-11T04:18:04.000Z,0.00
2018-12-11T04:19:02.019Z,0.00
2018-12-11T04:20:01.964Z,0.00
2018-12-11T04:21:03.938Z,0.00
2018-12-11T04:22:06.022Z,0.00
2018-12-11T04:23:07.530Z,0.00
2018-12-11T04:24:03.935Z,0.00
2018-12-11T04:25:01.944Z,0.00
2018-12-11T04:26:01.887Z,0.00
2018-12-11T04:27:01.888Z,0.00
2018-12-11T04:28:07.002Z,0.00
2018-12-11T04:29:05.975Z,0.00
2018-12-11T04:30:05.984Z,0.00
2018-12-11T04:31:03.695Z,0.00
2018-12-11T04:32:01.939Z,0.00
2018-12-11T04:33:05.370Z,0.00
2018-12-11T04:34:03.907Z,0.00
2018-12-11T04:35:10.508Z,0.00
2018-12-11T04:36:02.530Z,0.00
2018-12-11T04:37:03.107Z,0.00
2018-12-11T04:38:03.799Z,0.00
2018-12-11T04:39:03.969Z,0.00
2018-12-11T04:40:05.996Z,0.00
2018-12-11T04:41:04.044Z,0.00
2018-12-11T04:42:01.836Z,0.00
2018-12-11T04:43:01.748Z,0.00
2018-12-11T04:44:01.750Z,0.00
2018-12-11T04:45:02.776Z,0.00
2018-12-11T04:46:05.773Z,0.00
2018-12-11T04:47:01.799Z,0.00
2018-12-11T04:48:03.446Z,0.00
2018-12-11T04:49:05.696Z,0.00
2018-12-11T04:50:05.984Z,0.00
2018-12-11T04:51:03.993Z,0.00
2018-12-11T04:52:02.502Z,0.00
2018-12-11T04:53:02.514Z,0.00
2018-12-11T04:54:01.653Z,0.00
2018-12-11T04:55:03.880Z,0.00
2018-12-11T04:56:02.638Z,0.00
2018-12-11T04:57:02.711Z,0.00
2018-12-11T04:58:03.977Z,0.00
2018-12-11T04:59:03.858Z,0.00
2018-12-11T05:00:03.917Z,0.00
2018-12-11T05:01:04.021Z,0.00
2018-12-11T05:02:01.666Z,0.00
2018-12-11T05:03:03.980Z,0.00
2018-12-11T05:05:03.895Z,0.00
2018-12-11T05:06:01.574Z,0.00
2018-12-11T05:07:01.621Z,0.00
2018-12-11T05:08:02.964Z,0.00
2018-12-11T05:09:03.894Z,0.00
2018-12-11T05:10:01.538Z,0.00
2018-12-11T05:11:03.620Z,0.00
2018-12-11T05:12:01.830Z,0.00
2018-12-11T05:13:01.769Z,0.00
2018-12-11T05:14:03.568Z,0.00
2018-12-11T05:15:01.515Z,0.00
2018-12-11T05:16:01.474Z,0.00
2018-12-11T05:17:04.768Z,0.00
2018-12-11T05:18:05.936Z,0.00
2018-12-11T05:19:04.774Z,0.00
2018-12-11T05:20:01.457Z,0.00
2018-12-11T05:21:01.427Z,0.00
2018-12-11T05:22:01.505Z,0.00
2018-12-11T05:23:03.893Z,0.00
2018-12-11T05:24:03.990Z,0.00
2018-12-11T05:25:04.868Z,0.00
2018-12-11T05:26:02.845Z,0.00
2018-12-11T05:27:01.435Z,0.00
2018-12-11T05:28:01.452Z,0.00
2018-12-11T05:29:01.362Z,0.00
2018-12-11T05:30:04.011Z,0.00
2018-12-11T05:31:02.233Z,0.00
2018-12-11T05:32:01.793Z,0.00
2018-12-11T05:33:01.984Z,0.00
2018-12-11T05:34:02.452Z,0.00
2018-12-11T05:35:01.319Z,0.00
2018-12-11T05:36:01.292Z,0.00
2018-12-11T05:37:01.326Z,0.00
2018-12-11T05:38:01.382Z,0.00
2018-12-11T05:39:02.264Z,0.00
2018-12-11T05:40:04.249Z,0.00
2018-12-11T05:41:03.533Z,0.00
2018-12-11T05:42:01.337Z,0.00
2018-12-11T05:43:03.450Z,0.00
2018-12-11T05:44:01.660Z,0.00
2018-12-11T05:45:09.425Z,0.00
2018-12-11T05:46:09.490Z,0.00
2018-12-11T05:47:01.334Z,0.00
2018-12-11T05:48:03.465Z,0.00
2018-12-11T05:49:03.452Z,0.00
2018-12-11T05:50:05.798Z,0.00
2018-12-11T05:51:01.182Z,0.00
2018-12-11T05:52:02.175Z,0.00
2018-12-11T05:53:01.164Z,0.00
2018-12-11T05:54:03.390Z,0.00
2018-12-11T05:55:05.771Z,0.00
2018-12-11T05:56:01.194Z,0.00
2018-12-11T05:57:01.206Z,0.00
2018-12-11T05:58:02.717Z,0.00
2018-12-11T05:59:03.408Z,0.00
2018-12-11T06:00:03.384Z,0.00
2018-12-11T06:01:03.030Z,0.00
2018-12-11T06:02:01.199Z,0.00
2018-12-11T06:03:09.479Z,0.00
2018-12-11T06:04:04.159Z,0.00
2018-12-11T06:05:02.094Z,0.00
2018-12-11T06:06:01.160Z,0.00
2018-12-11T06:07:01.119Z,0.00
2018-12-11T06:08:03.347Z,0.00
2018-12-11T06:09:03.390Z,0.00
2018-12-11T06:10:01.248Z,0.00
2018-12-11T06:11:01.038Z,0.00
2018-12-11T06:12:01.112Z,0.00
2018-12-11T06:13:03.511Z,0.00
2018-12-11T06:14:03.877Z,0.00
2018-12-11T06:15:02.025Z,0.00
2018-12-11T06:16:01.018Z,0.00
2018-12-11T06:17:01.320Z,0.00
2018-12-11T06:18:05.715Z,0.00
2018-12-11T06:19:03.616Z,0.00
2018-12-11T06:20:03.774Z,0.00
2018-12-11T06:21:02.692Z,0.00
2018-12-11T06:22:01.010Z,0.00
2018-12-11T06:23:02.530Z,0.00
2018-12-11T06:24:03.018Z,0.00
2018-12-11T06:25:00.919Z,0.00
2018-12-11T06:26:01.893Z,0.00
2018-12-11T06:27:01.536Z,0.00
2018-12-11T06:28:02.152Z,0.00
2018-12-11T06:29:00.925Z,0.00
2018-12-11T06:30:05.761Z,0.00
2018-12-11T06:31:00.859Z,0.00
2018-12-11T06:32:04.250Z,0.00
2018-12-11T06:33:01.108Z,0.00
2018-12-11T06:34:05.237Z,0.00
2018-12-11T06:35:00.878Z,0.00
2018-12-11T06:36:03.058Z,0.00
2018-12-11T06:37:01.853Z,0.00
2018-12-11T06:38:02.948Z,0.00
2018-12-11T06:39:00.809Z,0.00
2018-12-11T06:40:00.781Z,0.00
2018-12-11T06:41:01.784Z,0.00
2018-12-11T06:42:03.032Z,0.00
2018-12-11T06:43:00.757Z,0.00
2018-12-11T06:44:02.686Z,4.00
2018-12-11T06:45:02.641Z,4.00
2018-12-11T06:46:02.935Z,4.00
2018-12-11T06:47:00.758Z,4.00
2018-12-11T06:48:03.717Z,4.00
2018-12-11T06:49:02.581Z,4.00
2018-12-11T06:50:00.797Z,4.00
2018-12-11T06:51:02.730Z,4.00
2018-12-11T06:52:08.930Z,0.00
2018-12-11T06:53:00.675Z,0.00
2018-12-11T06:54:00.707Z,0.00
2018-12-11T06:55:05.660Z,0.00
2018-12-11T06:56:01.940Z,4.00
2018-12-11T06:57:04.071Z,0.00
2018-12-11T06:58:04.725Z,4.00
2018-12-11T06:59:00.643Z,4.00
2018-12-11T07:00:02.390Z,4.00
2018-12-11T07:01:00.645Z,4.00
2018-12-11T07:02:00.610Z,4.00
2018-12-11T07:03:01.437Z,4.00
2018-12-11T07:04:00.996Z,8.00
2018-12-11T07:05:02.971Z,8.00
2018-12-11T07:06:02.296Z,8.00
2018-12-11T07:07:00.819Z,8.00
2018-12-11T07:08:00.580Z,12.00
2018-12-11T07:09:00.550Z,12.00
2018-12-11T07:10:00.841Z,16.00
2018-12-11T07:11:00.546Z,12.00
2018-12-11T07:12:00.519Z,16.00
2018-12-11T07:13:02.450Z,20.00
2018-12-11T07:14:08.990Z,20.00
2018-12-11T07:15:03.418Z,24.00
2018-12-11T07:16:08.974Z,28.00
2018-12-11T07:17:03.437Z,32.00
2018-12-11T07:18:04.025Z,36.00
2018-12-11T07:19:04.510Z,44.00
2018-12-11T07:20:08.512Z,48.00
2018-12-11T07:21:02.810Z,52.00
2018-12-11T07:22:22.868Z,56.00
2018-12-11T07:23:02.865Z,60.00
2018-12-11T07:24:01.620Z,64.00
2018-12-11T07:25:02.893Z,72.00
2018-12-11T07:26:02.446Z,76.00
2018-12-11T07:27:03.445Z,84.00
2018-12-11T07:28:02.413Z,92.00
2018-12-11T07:29:02.427Z,96.00
2018-12-11T07:30:02.959Z,104.00
2018-12-11T07:31:03.017Z,116.00
2018-12-11T07:32:02.430Z,124.00
2018-12-11T07:33:02.451Z,132.00
2018-12-11T07:34:02.488Z,140.00
2018-12-11T07:35:02.408Z,148.00
2018-12-11T07:36:02.459Z,156.00
2018-12-11T07:37:02.831Z,164.00
2018-12-11T07:38:02.430Z,176.00
2018-12-11T07:39:02.478Z,180.00
2018-12-11T07:40:02.476Z,192.00
2018-12-11T07:41:02.420Z,200.00
2018-12-11T07:42:02.912Z,212.00
2018-12-11T07:43:01.974Z,220.00
2018-12-11T07:44:02.435Z,228.00
2018-12-11T07:45:02.345Z,240.00
2018-12-11T07:46:02.516Z,252.00
2018-12-11T07:47:04.944Z,260.00
2018-12-11T07:48:02.942Z,272.00
2018-12-11T07:49:02.480Z,284.00
2018-12-11T07:50:02.500Z,296.00
2018-12-11T07:51:02.940Z,308.00
2018-12-11T07:52:02.506Z,320.00
2018-12-11T07:53:06.311Z,336.00
2018-12-11T07:54:02.390Z,356.00
2018-12-11T07:55:06.476Z,372.00
2018-12-11T07:56:02.779Z,400.00
2018-12-11T07:57:04.458Z,424.00
2018-12-11T07:59:01.968Z,476.00
2018-12-11T08:00:02.730Z,496.00
2018-12-11T08:01:02.738Z,512.00
2018-12-11T08:02:02.964Z,532.00
2018-12-11T08:03:02.988Z,548.00
2018-12-11T08:04:02.721Z,556.00
2018-12-11T08:05:02.481Z,564.00
2018-12-11T08:06:02.951Z,572.00
2018-12-11T08:07:02.495Z,580.00
2018-12-11T08:08:02.491Z,584.00
2018-12-11T08:09:02.496Z,588.00
2018-12-11T08:10:05.149Z,592.00
2018-12-11T08:11:02.464Z,596.00
2018-12-11T08:12:08.162Z,600.00
2018-12-11T08:13:02.966Z,608.00
2018-12-11T08:14:02.464Z,616.00
2018-12-11T08:15:03.738Z,636.00
2018-12-11T08:16:02.318Z,664.00
2018-12-11T08:17:02.454Z,696.00
2018-12-11T08:18:01.831Z,724.00
2018-12-11T08:19:02.906Z,776.00
2018-12-11T08:20:04.444Z,824.00
2018-12-11T08:21:02.703Z,884.00
2018-12-11T08:22:04.444Z,936.00
2018-12-11T08:23:01.974Z,988.00
2018-12-11T08:24:02.433Z,1052.00
2018-12-11T08:25:04.015Z,1096.00
2018-12-11T08:26:02.761Z,1148.00
2018-12-11T08:27:02.435Z,1168.00
2018-12-11T08:28:01.935Z,1164.00
2018-12-11T08:29:02.271Z,1144.00
2018-12-11T08:30:02.602Z,1096.00
2018-12-11T08:31:02.011Z,1060.00
2018-12-11T08:32:04.027Z,1052.00
2018-12-11T08:33:02.272Z,1032.00
2018-12-11T08:34:02.470Z,1008.00
2018-12-11T08:35:02.015Z,992.00
2018-12-11T08:36:02.398Z,972.00
2018-12-11T08:37:02.464Z,944.00
2018-12-11T08:38:03.435Z,912.00
2018-12-11T08:39:02.789Z,896.00
2018-12-11T08:40:02.473Z,896.00
2018-12-11T08:41:02.011Z,912.00
2018-12-11T08:42:02.119Z,940.00
2018-12-11T08:43:01.999Z,980.00
2018-12-11T08:44:02.449Z,1032.00
2018-12-11T08:45:02.445Z,1120.00
2018-12-11T08:46:02.436Z,1216.00
2018-12-11T08:47:02.427Z,1340.00
2018-12-11T08:48:02.434Z,1496.00
2018-12-11T08:49:02.443Z,1644.00
2018-12-11T08:50:01.984Z,1752.00
2018-12-11T08:51:02.010Z,1796.00
2018-12-11T08:52:03.422Z,1760.00
2018-12-11T08:53:02.444Z,1680.00
2018-12-11T08:54:01.429Z,1576.00
2018-12-11T08:55:02.452Z,1444.00
2018-12-11T08:56:02.423Z,1304.00
2018-12-11T08:57:02.429Z,1180.00
2018-12-11T08:58:02.437Z,1092.00
2018-12-11T08:59:06.336Z,1056.00
2018-12-11T09:00:02.496Z,1068.00
2018-12-11T09:02:02.423Z,1120.00
2018-12-11T09:03:02.053Z,1124.00
2018-12-11T09:04:02.012Z,1112.00
2018-12-11T09:05:02.051Z,1080.00
2018-12-11T09:06:02.446Z,1096.00
2018-12-11T09:07:01.905Z,1128.00
2018-12-11T09:08:04.422Z,1148.00
2018-12-11T09:09:02.171Z,1152.00
2018-12-11T09:10:02.004Z,1144.00
2018-12-11T09:11:02.333Z,1152.00
2018-12-11T09:12:02.435Z,1180.00
2018-12-11T09:13:02.441Z,1228.00
2018-12-11T09:14:02.378Z,1284.00
2018-12-11T09:15:01.296Z,1348.00
2018-12-11T09:16:02.731Z,1480.00
2018-12-11T09:17:09.883Z,1884.00
2018-12-11T09:18:02.041Z,2304.00
2018-12-11T09:19:02.012Z,2424.00
2018-12-11T09:20:02.301Z,2292.00
2018-12-11T09:21:02.016Z,2292.00
2018-12-11T09:22:01.983Z,2300.00
2018-12-11T09:23:02.023Z,2336.00
2018-12-11T09:24:02.307Z,2292.00
2018-12-11T09:25:08.580Z,2556.00
2018-12-11T09:26:01.990Z,2344.00
2018-12-11T09:27:02.130Z,2228.00
2018-12-11T09:28:01.915Z,2284.00
2018-12-11T09:29:04.243Z,2676.00
2018-12-11T09:30:03.938Z,3088.00
2018-12-11T09:31:01.655Z,3884.00
2018-12-11T09:32:15.872Z,4948.00
2018-12-11T09:33:03.909Z,4896.00
2018-12-11T09:34:02.158Z,3704.00
2018-12-11T09:35:01.339Z,2484.00
2018-12-11T09:36:02.938Z,1624.00
2018-12-11T09:37:01.191Z,1100.00
2018-12-11T09:38:01.477Z,844.00
2018-12-11T09:39:01.483Z,728.00
2018-12-11T09:40:01.937Z,660.00
2018-12-11T09:41:01.953Z,652.00
2018-12-11T09:42:06.933Z,716.00
2018-12-11T09:43:01.963Z,828.00
2018-12-11T09:44:01.936Z,984.00
2018-12-11T09:45:02.012Z,1136.00
2018-12-11T09:46:03.945Z,1352.00
2018-12-11T09:47:01.954Z,1640.00
2018-12-11T09:48:01.982Z,1892.00
2018-12-11T09:49:01.786Z,2136.00
2018-12-11T09:50:01.578Z,2352.00
2018-12-11T09:51:01.504Z,2544.00
2018-12-11T09:52:01.715Z,2584.00
2018-12-11T09:53:01.917Z,2492.00
2018-12-11T09:54:01.526Z,2384.00
2018-12-11T09:55:01.391Z,2504.00
2018-12-11T09:56:01.944Z,2852.00
2018-12-11T09:57:03.456Z,3372.00
2018-12-11T09:58:02.187Z,3540.00
2018-12-11T09:59:01.876Z,3776.00
2018-12-11T10:00:01.467Z,3848.00
2018-12-11T10:01:03.758Z,3524.00
2018-12-11T10:02:03.913Z,2684.00
2018-12-11T10:03:01.466Z,2052.00
2018-12-11T10:04:01.424Z,1808.00
2018-12-11T10:05:01.958Z,1668.00
2018-12-11T10:06:00.955Z,1512.00
2018-12-11T10:07:01.355Z,1704.00
2018-12-11T10:08:01.437Z,2024.00
2018-12-11T10:09:01.930Z,2116.00
2018-12-11T10:10:04.453Z,2012.00
2018-12-11T10:11:01.699Z,2124.00
2018-12-11T10:12:01.910Z,2520.00
2018-12-11T10:13:01.005Z,2860.00
2018-12-11T10:14:01.946Z,3300.00
2018-12-11T10:15:01.573Z,3796.00
2018-12-11T10:16:01.478Z,5988.00
2018-12-11T10:17:01.847Z,3856.00
2018-12-11T10:18:01.637Z,3452.00
2018-12-11T10:19:01.492Z,2944.00
2018-12-11T10:20:01.455Z,3028.00
2018-12-11T10:21:01.973Z,4108.00
2018-12-11T10:22:01.562Z,9928.00
2018-12-11T10:23:01.965Z,9424.00
2018-12-11T10:24:01.469Z,11448.00
2018-12-11T10:25:01.949Z,9856.00
2018-12-11T10:26:01.971Z,6092.00
2018-12-11T10:27:01.500Z,4596.00
2018-12-11T10:28:01.634Z,5452.00
2018-12-11T10:29:02.036Z,10232.00
2018-12-11T10:30:01.207Z,6516.00
2018-12-11T10:31:02.011Z,5168.00
2018-12-11T10:32:01.574Z,12344.00
2018-12-11T10:33:01.554Z,7780.00
2018-12-11T10:34:02.442Z,13476.00
2018-12-11T10:35:03.447Z,14528.00
2018-12-11T10:36:02.745Z,14560.00
2018-12-11T10:37:00.231Z,10304.00
2018-12-11T10:38:01.066Z,7216.00
2018-12-11T10:39:01.487Z,5292.00
2018-12-11T10:40:03.455Z,4428.00
2018-12-11T10:41:01.550Z,4280.00
2018-12-11T10:42:01.678Z,4188.00
2018-12-11T10:43:00.851Z,4140.00
2018-12-11T10:44:03.931Z,4272.00
2018-12-11T10:45:03.438Z,4532.00
2018-12-11T10:46:01.257Z,5332.00
2018-12-11T10:47:01.460Z,6784.00
2018-12-11T10:48:01.418Z,7752.00
2018-12-11T10:49:03.467Z,8628.00
2018-12-11T10:50:03.431Z,11512.00
2018-12-11T10:51:01.448Z,5804.00
2018-12-11T10:52:01.164Z,5520.00
2018-12-11T10:53:01.944Z,8112.00
2018-12-11T10:54:01.369Z,10424.00
2018-12-11T10:55:01.438Z,12184.00
2018-12-11T10:56:01.479Z,12336.00
2018-12-11T10:57:00.999Z,11820.00
2018-12-11T10:58:01.297Z,8256.00
2018-12-11T10:59:01.048Z,7460.00
2018-12-11T11:00:01.400Z,6488.00
2018-12-11T11:01:01.471Z,7400.00
2018-12-11T11:02:00.541Z,19264.00
2018-12-11T11:03:01.275Z,19840.00
2018-12-11T11:04:00.901Z,14656.00
2018-12-11T11:05:01.445Z,22240.00
2018-12-11T11:06:03.087Z,22240.00
2018-12-11T11:07:01.409Z,23232.00
2018-12-11T11:08:00.994Z,29440.00
2018-12-11T11:09:01.606Z,34752.00
2018-12-11T11:10:01.462Z,33952.00
2018-12-11T11:11:01.479Z,32416.00
2018-12-11T11:12:01.463Z,35648.00
2018-12-11T11:13:00.846Z,34400.00
2018-12-11T11:14:01.475Z,33216.00
2018-12-11T11:15:01.474Z,32768.00
2018-12-11T11:16:01.879Z,31776.00
2018-12-11T11:17:01.128Z,30976.00
2018-12-11T11:18:01.435Z,31360.00
2018-12-11T11:19:01.447Z,30432.00
2018-12-11T11:20:03.443Z,30688.00
2018-12-11T11:21:01.150Z,14816.00
2018-12-11T11:22:01.458Z,11076.00
2018-12-11T11:23:03.464Z,19936.00
2018-12-11T11:24:01.457Z,12240.00
2018-12-11T11:25:00.874Z,13328.00
2018-12-11T11:26:03.516Z,16928.00
2018-12-11T11:26:58.904Z,11004.00
2018-12-11T11:28:07.444Z,6256.00
2018-12-11T11:29:03.466Z,10564.00
2018-12-11T11:30:02.917Z,5628.00
2018-12-11T11:31:01.472Z,6256.00
2018-12-11T11:32:02.945Z,5964.00
2018-12-11T11:33:01.458Z,10496.00
2018-12-11T11:34:00.931Z,23072.00
2018-12-11T11:35:01.237Z,23136.00
2018-12-11T11:36:03.478Z,13816.00
2018-12-11T11:37:02.436Z,9164.00
2018-12-11T11:38:01.497Z,8640.00
2018-12-11T11:39:02.449Z,15168.00
2018-12-11T11:40:05.072Z,17120.00
2018-12-11T11:41:07.440Z,31232.00
2018-12-11T11:42:01.009Z,29408.00
2018-12-11T11:43:01.156Z,23296.00
2018-12-11T11:44:03.082Z,28992.00
2018-12-11T11:45:01.109Z,24992.00
2018-12-11T11:46:01.469Z,29984.00
2018-12-11T11:46:58.876Z,31616.00
2018-12-11T11:48:01.022Z,29792.00
2018-12-11T11:49:00.755Z,26432.00
2018-12-11T11:50:00.967Z,31040.00
2018-12-11T11:51:00.977Z,32192.00
2018-12-11T11:52:01.489Z,30880.00
2018-12-11T11:53:01.500Z,15392.00
2018-12-11T11:54:00.384Z,15904.00
2018-12-11T11:55:01.453Z,10900.00
2018-12-11T11:56:00.937Z,8108.00
2018-12-11T11:57:01.476Z,15232.00
2018-12-11T11:58:00.856Z,4512.00
2018-12-11T11:59:01.743Z,3360.00
2018-12-11T12:00:01.450Z,3376.00
2018-12-11T12:01:01.030Z,3752.00
2018-12-11T12:02:00.861Z,4520.00
2018-12-11T12:03:01.432Z,4668.00
2018-12-11T12:04:01.454Z,3880.00
2018-12-11T12:05:01.181Z,3416.00
2018-12-11T12:06:02.090Z,3272.00
2018-12-11T12:07:00.909Z,3080.00
2018-12-11T12:08:00.844Z,3128.00
2018-12-11T12:09:01.481Z,3344.00
2018-12-11T12:10:00.967Z,4396.00
2018-12-11T12:11:01.493Z,5468.00
2018-12-11T12:12:01.017Z,6268.00
2018-12-11T12:13:01.959Z,7496.00
2018-12-11T12:14:02.455Z,9028.00
2018-12-11T12:15:00.961Z,24480.00
2018-12-11T12:16:02.170Z,23104.00
2018-12-11T12:17:00.481Z,24096.00
2018-12-11T12:18:01.012Z,19872.00
2018-12-11T12:19:00.843Z,16736.00
2018-12-11T12:20:00.968Z,20448.00
2018-12-11T12:21:00.865Z,7084.00
2018-12-11T12:22:01.165Z,4564.00
2018-12-11T12:23:00.527Z,4544.00
2018-12-11T12:24:01.082Z,4684.00
2018-12-11T12:25:00.986Z,5708.00
2018-12-11T12:26:01.473Z,20288.00
2018-12-11T12:27:01.200Z,20352.00
2018-12-11T12:28:00.969Z,5624.00
2018-12-11T12:29:00.924Z,7220.00
2018-12-11T12:30:01.128Z,8256.00
2018-12-11T12:31:02.958Z,5488.00
2018-12-11T12:32:01.465Z,4268.00
2018-12-11T12:33:03.968Z,4456.00
2018-12-11T12:34:03.016Z,6680.00
2018-12-11T12:35:01.081Z,3684.00
2018-12-11T12:36:05.088Z,3824.00
2018-12-11T12:37:00.480Z,4608.00
2018-12-11T12:38:01.432Z,4828.00
2018-12-11T12:39:02.494Z,5064.00
2018-12-11T12:40:17.811Z,5816.00
2018-12-11T12:41:01.057Z,6432.00
2018-12-11T12:42:02.942Z,7428.00
2018-12-11T12:43:01.983Z,7616.00
2018-12-11T12:43:59.684Z,7268.00
2018-12-11T12:44:58.694Z,7424.00
2018-12-11T12:45:58.773Z,6956.00
2018-12-11T12:46:58.774Z,6492.00
2018-12-11T12:47:58.676Z,6028.00
2018-12-11T12:48:58.702Z,5500.00
2018-12-11T12:49:58.652Z,5044.00
2018-12-11T12:50:58.705Z,4704.00